Time;durP1;ratioP1;P1;durP2;ratioP2;P2;SDS_P1;SDS_P2;PMS_P1;PMS_P2;Temp;Humidity;BMP_temperature;BMP_pressure;BME280_temperature;BME280_humidity;BME280_pressure;Samples;Min_cycle;Max_cycle;Signal;HPM_P1;HPM_P2
2021/12/19 00:02:38;;;;;;;1.85;0.80;;;20.70;49.40;;;;;;6198174;28;20038;-73
2021/12/19 00:08:58;;;;;;;1.05;0.70;;;20.70;49.40;;;;;;6197583;28;19909;-73
2021/12/19 00:11:59;;;;;;;1.10;0.52;;;20.70;49.40;;;;;;6197258;28;20029;-73
2021/12/19 00:15:00;;;;;;;1.00;0.70;;;20.70;49.40;;;;;;6197733;28;20105;-73
2021/12/19 00:18:01;;;;;;;0.98;0.63;;;20.70;49.40;;;;;;6197526;28;20034;-73
2021/12/19 00:21:03;;;;;;;0.93;0.40;;;20.70;49.40;;;;;;6197159;28;20057;-73
2021/12/19 00:24:04;;;;;;;1.08;0.50;;;20.70;49.40;;;;;;6197657;28;20394;-73
2021/12/19 00:27:05;;;;;;;1.27;0.50;;;20.70;49.40;;;;;;6194087;28;20030;-73
2021/12/19 00:30:05;;;;;;;1.27;0.55;;;20.70;49.50;;;;;;6197589;28;20263;-73
2021/12/19 00:33:06;;;;;;;1.98;0.70;;;20.70;49.40;;;;;;6174163;28;20089;-73
2021/12/19 00:36:07;;;;;;;0.93;0.57;;;20.70;49.40;;;;;;6175105;28;20085;-73
2021/12/19 00:39:08;;;;;;;1.02;0.52;;;20.70;49.40;;;;;;6195068;28;20504;-73
2021/12/19 00:42:09;;;;;;;1.75;0.70;;;20.70;49.40;;;;;;6197351;28;20031;-73
2021/12/19 00:45:19;;;;;;;1.27;0.57;;;20.70;50.00;;;;;;6196978;28;20232;-73
2021/12/19 00:48:20;;;;;;;1.50;0.60;;;20.70;49.40;;;;;;6196673;28;20437;-73
2021/12/19 00:51:24;;;;;;;1.15;0.50;;;20.70;49.40;;;;;;6194431;28;20025;-73
2021/12/19 00:54:24;;;;;;;2.13;0.60;;;20.70;49.30;;;;;;6196752;28;20034;-73
2021/12/19 00:57:25;;;;;;;0.93;0.50;;;20.70;49.40;;;;;;6196657;28;20053;-73
2021/12/19 01:00:29;;;;;;;1.25;0.80;;;20.70;49.40;;;;;;6196811;28;20037;-73
2021/12/19 01:03:30;;;;;;;1.10;0.65;;;20.70;49.40;;;;;;6194824;28;20031;-73
2021/12/19 01:06:31;;;;;;;1.17;0.40;;;20.70;49.30;;;;;;6196153;28;20041;-74
2021/12/19 01:09:31;;;;;;;2.28;0.60;;;20.70;49.40;;;;;;6196549;28;20311;-73
2021/12/19 01:12:33;;;;;;;0.98;0.47;;;20.70;49.40;;;;;;6196270;28;20022;-73
2021/12/19 01:15:33;;;;;;;1.42;0.50;;;20.70;49.40;;;;;;6194632;28;20030;-73
2021/12/19 01:18:34;;;;;;;0.80;0.50;;;20.70;49.40;;;;;;6196063;28;20042;-74
2021/12/19 01:21:35;;;;;;;2.17;0.73;;;20.70;49.50;;;;;;6196261;28;20037;-73
2021/12/19 01:24:35;;;;;;;2.38;0.50;;;20.70;49.40;;;;;;6195941;28;20053;-73
2021/12/19 01:27:36;;;;;;;7.97;0.73;;;20.70;49.40;;;;;;6194732;28;20034;-73
2021/12/19 01:30:37;;;;;;;0.75;0.47;;;20.70;49.30;;;;;;6186283;28;20031;-73
2021/12/19 01:33:38;;;;;;;2.17;0.70;;;20.60;49.30;;;;;;6177164;28;20031;-73
2021/12/19 01:36:41;;;;;;;1.40;0.57;;;20.60;49.20;;;;;;6177552;28;20018;-73
2021/12/19 01:39:41;;;;;;;0.68;0.50;;;20.60;49.20;;;;;;6196065;28;20026;-73
2021/12/19 01:42:44;;;;;;;1.30;0.52;;;20.60;49.20;;;;;;6195516;28;20030;-73
2021/12/19 01:45:45;;;;;;;0.43;0.43;;;20.60;49.20;;;;;;6195782;28;20058;-73
2021/12/19 01:48:45;;;;;;;1.30;0.50;;;20.60;49.20;;;;;;6195222;28;20034;-73
2021/12/19 01:51:47;;;;;;;0.80;0.50;;;20.60;49.20;;;;;;6195322;28;20034;-73
2021/12/19 01:54:48;;;;;;;0.57;0.40;;;20.60;49.20;;;;;;6194484;28;20350;-73
2021/12/19 01:57:49;;;;;;;1.50;0.60;;;20.60;49.30;;;;;;6195152;28;20125;-73
2021/12/19 02:00:53;;;;;;;1.05;0.50;;;20.60;49.20;;;;;;6195435;28;20022;-74
2021/12/19 02:03:54;;;;;;;0.77;0.30;;;20.60;49.20;;;;;;6195710;28;20037;-73
2021/12/19 02:06:54;;;;;;;1.02;0.35;;;20.60;49.20;;;;;;6194257;28;20033;-73
2021/12/19 02:09:55;;;;;;;1.50;0.60;;;20.60;49.20;;;;;;6193703;28;20030;-73
2021/12/19 02:12:58;;;;;;;1.15;0.45;;;20.60;49.20;;;;;;6194896;28;20030;-73
2021/12/19 02:15:59;;;;;;;1.75;0.50;;;20.60;49.20;;;;;;6189262;28;20456;-74
2021/12/19 02:18:59;;;;;;;1.92;0.70;;;20.60;49.20;;;;;;6194404;28;20030;-73
2021/12/19 02:22:00;;;;;;;0.60;0.40;;;20.60;49.20;;;;;;6195487;28;20038;-73
2021/12/19 02:25:00;;;;;;;2.15;0.70;;;20.60;49.20;;;;;;6194651;28;20172;-73
2021/12/19 02:28:03;;;;;;;1.00;0.55;;;20.60;49.20;;;;;;6194429;28;20497;-73
2021/12/19 02:31:03;;;;;;;0.40;0.40;;;20.60;49.20;;;;;;6183383;28;20027;-73
2021/12/19 02:34:13;;;;;;;1.35;0.60;;;20.60;49.20;;;;;;6175595;28;20034;-73
2021/12/19 02:38:17;;;;;;;1.30;0.50;;;20.60;49.20;;;;;;6181145;28;20018;-73
2021/12/19 02:50:48;;;;;;;1.83;0.55;;;20.60;49.30;;;;;;6194802;28;20466;-73
2021/12/19 02:53:49;;;;;;;1.50;0.63;;;20.60;49.30;;;;;;6193896;28;20026;-74
2021/12/19 02:56:50;;;;;;;0.70;0.32;;;20.60;49.30;;;;;;6194020;28;20101;-73
2021/12/19 02:59:51;;;;;;;1.20;0.57;;;20.60;49.20;;;;;;6194508;28;20239;-73
2021/12/19 03:02:51;;;;;;;0.88;0.40;;;20.60;49.20;;;;;;6193883;28;20030;-74
2021/12/19 03:05:52;;;;;;;0.68;0.50;;;20.60;49.20;;;;;;6194446;28;20061;-73
2021/12/19 03:08:53;;;;;;;1.33;0.50;;;20.60;49.20;;;;;;6194284;28;20547;-73
2021/12/19 03:18:14;;;;;;;0.40;0.30;;;20.60;49.20;;;;;;6193631;28;20050;-73
2021/12/19 03:21:17;;;;;;;0.80;0.50;;;20.60;49.30;;;;;;6192749;28;20065;-74
2021/12/19 03:24:17;;;;;;;0.90;0.50;;;20.60;49.20;;;;;;6194233;28;20026;-74
2021/12/19 03:27:18;;;;;;;0.77;0.40;;;20.60;49.20;;;;;;6193407;28;20053;-73
2021/12/19 03:30:19;;;;;;;0.82;0.40;;;20.60;49.20;;;;;;6190177;28;20030;-74
2021/12/19 03:33:20;;;;;;;0.65;0.40;;;20.60;49.20;;;;;;6172823;28;20335;-74
2021/12/19 03:36:21;;;;;;;1.90;0.50;;;20.60;49.20;;;;;;6172576;28;20545;-74
2021/12/19 03:39:36;;;;;;;0.85;0.43;;;20.60;49.20;;;;;;6194029;28;20026;-74
2021/12/19 03:42:48;;;;;;;0.82;0.45;;;20.60;49.20;;;;;;6192882;28;20054;-73
2021/12/19 03:45:49;;;;;;;0.65;0.40;;;20.60;49.20;;;;;;6193719;28;20046;-74
2021/12/19 03:48:50;;;;;;;0.95;0.50;;;20.60;49.20;;;;;;6193319;28;20444;-74
2021/12/19 03:51:50;;;;;;;0.57;0.35;;;20.60;49.20;;;;;;6198003;28;20034;-74
2021/12/19 03:54:51;;;;;;;0.70;0.40;;;20.60;49.20;;;;;;6198298;28;20035;-74
2021/12/19 03:57:52;;;;;;;0.90;0.32;;;20.60;49.20;;;;;;6197010;28;20141;-74
2021/12/19 04:00:54;;;;;;;0.63;0.40;;;20.60;49.20;;;;;;6197737;28;20038;-74
2021/12/19 04:03:55;;;;;;;0.90;0.50;;;20.60;49.20;;;;;;6197578;28;20461;-74
2021/12/19 04:06:55;;;;;;;0.47;0.30;;;20.60;49.10;;;;;;6194303;28;20615;-74
2021/12/19 04:09:56;;;;;;;0.50;0.40;;;20.60;49.20;;;;;;6173764;28;20086;-74
2021/12/19 04:12:57;;;;;;;0.40;0.40;;;20.60;49.10;;;;;;6179144;28;20081;-74
2021/12/19 04:15:57;;;;;;;0.82;0.50;;;20.60;49.10;;;;;;6198213;28;20057;-74
2021/12/19 04:18:58;;;;;;;0.50;0.35;;;20.60;49.10;;;;;;6197641;28;20015;-74
2021/12/19 04:21:59;;;;;;;1.73;0.55;;;20.60;49.10;;;;;;6197956;28;20113;-74
2021/12/19 04:25:00;;;;;;;0.50;0.30;;;20.60;49.20;;;;;;6197619;28;20405;-74
2021/12/19 04:28:01;;;;;;;1.08;0.40;;;20.60;49.10;;;;;;6197365;28;20029;-74
2021/12/19 04:31:03;;;;;;;0.77;0.40;;;20.60;49.10;;;;;;6186012;28;20023;-73
2021/12/19 04:34:04;;;;;;;1.20;0.40;;;20.60;49.10;;;;;;6177838;28;20034;-74
2021/12/19 04:37:38;;;;;;;1.20;0.50;;;20.60;49.10;;;;;;6182690;28;20382;-74
2021/12/19 04:40:37;;;;;;;0.30;0.20;;;20.60;49.10;;;;;;6196734;28;20088;-73
2021/12/19 04:53:53;;;;;;;0.55;0.35;;;20.60;49.00;;;;;;6196131;28;20121;-74
2021/12/19 04:57:25;;;;;;;0.43;0.35;;;20.60;49.00;;;;;;6197025;28;20042;-73
2021/12/19 05:00:48;;;;;;;0.30;0.30;;;20.60;49.00;;;;;;6196016;28;20019;-74
2021/12/19 05:04:08;;;;;;;1.33;0.50;;;20.60;49.00;;;;;;6196258;28;20061;-74
2021/12/19 05:17:09;;;;;;;0.93;0.40;;;20.60;49.00;;;;;;6196357;28;20057;-74
2021/12/19 05:20:17;;;;;;;0.82;0.40;;;20.60;49.00;;;;;;6196167;28;20072;-74
2021/12/19 05:23:39;;;;;;;0.43;0.30;;;20.60;49.00;;;;;;6196007;28;20039;-74
2021/12/19 05:26:42;;;;;;;1.27;0.43;;;20.60;49.00;;;;;;6195552;28;20506;-74
2021/12/19 05:29:44;;;;;;;0.68;0.45;;;20.60;49.00;;;;;;6196086;28;20198;-73
2021/12/19 05:32:47;;;;;;;0.52;0.50;;;20.60;49.00;;;;;;6175900;28;20023;-73
2021/12/19 05:44:07;;;;;;;0.47;0.40;;;20.60;48.90;;;;;;6170238;28;20061;-73
2021/12/19 05:46:02;;;;;;;0.35;0.30;;;20.60;49.00;;;;;;6195797;28;20493;-73
2021/12/19 05:49:04;;;;;;;1.10;0.40;;;20.60;49.00;;;;;;6195084;28;20213;-74
2021/12/19 05:52:04;;;;;;;0.60;0.50;;;20.60;48.90;;;;;;6195589;28;20033;-74
2021/12/19 05:55:06;;;;;;;0.45;0.38;;;20.60;49.00;;;;;;6195160;28;20490;-74
2021/12/19 05:58:07;;;;;;;2.05;0.50;;;20.60;49.00;;;;;;6194866;28;20130;-73
2021/12/19 06:01:07;;;;;;;0.63;0.47;;;20.60;48.90;;;;;;6189736;28;20034;-74
2021/12/19 06:04:08;;;;;;;0.50;0.40;;;20.60;49.00;;;;;;6169073;28;20030;-74
2021/12/19 06:07:08;;;;;;;0.63;0.40;;;20.60;49.00;;;;;;6173887;28;20033;-74
2021/12/19 06:10:10;;;;;;;0.52;0.40;;;20.60;49.00;;;;;;6193227;28;20474;-74
2021/12/19 06:13:10;;;;;;;0.93;0.38;;;20.60;49.00;;;;;;6194515;28;20027;-74
2021/12/19 06:16:11;;;;;;;1.10;0.50;;;20.60;49.00;;;;;;6195317;28;20259;-73
2021/12/19 06:19:11;;;;;;;1.10;0.40;;;20.60;49.00;;;;;;6192810;28;20695;-74
2021/12/19 06:22:12;;;;;;;0.57;0.40;;;20.60;49.00;;;;;;6194585;28;20042;-74
2021/12/19 06:25:13;;;;;;;0.95;0.38;;;20.60;49.60;;;;;;6193204;28;20161;-74
2021/12/19 06:28:17;;;;;;;0.90;0.50;;;20.60;49.00;;;;;;6194215;28;20089;-73
2021/12/19 06:31:18;;;;;;;1.23;0.45;;;20.60;49.00;;;;;;6183378;28;20512;-74
2021/12/19 06:34:18;;;;;;;0.57;0.43;;;20.60;48.90;;;;;;6171430;28;20034;-73
2021/12/19 06:37:19;;;;;;;0.47;0.25;;;20.60;49.00;;;;;;6182034;28;20346;-74
2021/12/19 06:40:21;;;;;;;1.13;0.45;;;20.60;49.00;;;;;;6165226;28;20046;-74
2021/12/19 06:43:22;;;;;;;0.38;0.22;;;20.60;48.90;;;;;;6189125;28;20507;-74
2021/12/19 06:46:22;;;;;;;1.00;0.60;;;20.50;48.90;;;;;;6194093;28;20029;-74
2021/12/19 06:49:23;;;;;;;0.57;0.40;;;20.60;49.00;;;;;;6194284;28;20022;-74
2021/12/19 06:52:24;;;;;;;0.70;0.20;;;20.60;49.00;;;;;;6194108;28;20030;-74
2021/12/19 06:55:24;;;;;;;0.90;0.60;;;20.60;49.00;;;;;;6194535;28;20034;-74
2021/12/19 06:58:25;;;;;;;1.17;0.50;;;20.60;48.90;;;;;;6191780;28;20271;-74
2021/12/19 07:01:26;;;;;;;0.40;0.40;;;20.50;48.80;;;;;;6195198;28;20041;-74
2021/12/19 07:04:26;;;;;;;0.88;0.40;;;20.60;48.90;;;;;;6194125;28;20023;-74
2021/12/19 07:07:27;;;;;;;0.50;0.38;;;20.50;48.80;;;;;;6193376;28;20042;-74
2021/12/19 07:10:27;;;;;;;0.57;0.45;;;20.50;48.70;;;;;;6194780;28;20104;-74
2021/12/19 07:13:28;;;;;;;0.30;0.30;;;20.60;48.80;;;;;;6194081;28;20117;-74
2021/12/19 07:16:29;;;;;;;1.13;0.50;;;20.50;48.70;;;;;;6193648;28;20085;-74
2021/12/19 07:19:29;;;;;;;0.32;0.30;;;20.50;48.70;;;;;;6191614;28;20022;-74
2021/12/19 07:22:30;;;;;;;0.77;0.52;;;20.50;48.70;;;;;;6193967;28;20046;-74
2021/12/19 07:25:30;;;;;;;0.43;0.40;;;20.60;48.80;;;;;;6196929;28;20065;-73
2021/12/19 07:28:31;;;;;;;1.58;0.50;;;20.60;48.90;;;;;;6197684;28;20405;-74
2021/12/19 07:31:35;;;;;;;1.02;0.40;;;20.60;48.80;;;;;;6170095;28;20026;-74
2021/12/19 07:34:37;;;;;;;1.13;0.50;;;20.50;48.80;;;;;;6170211;28;20427;-74
2021/12/19 07:37:38;;;;;;;0.50;0.38;;;20.50;48.70;;;;;;6166261;28;20023;-74
2021/12/19 07:40:39;;;;;;;1.42;0.45;;;20.50;48.60;;;;;;6160184;28;20557;-74
2021/12/19 07:43:40;;;;;;;1.30;0.50;;;20.50;48.70;;;;;;6169971;28;20035;-74
2021/12/19 07:46:40;;;;;;;2.65;0.52;;;20.60;48.90;;;;;;6156650;28;20073;-74
2021/12/19 07:49:41;;;;;;;0.90;0.50;;;20.60;49.00;;;;;;6174486;28;20553;-74
2021/12/19 07:52:42;;;;;;;0.80;0.32;;;20.60;49.00;;;;;;6139024;28;20142;-74
2021/12/19 07:55:43;;;;;;;1.30;0.40;;;20.60;49.00;;;;;;6132011;28;20537;-74
2021/12/19 07:58:44;;;;;;;0.50;0.30;;;20.60;49.00;;;;;;6158589;28;20502;-73
2021/12/19 08:01:45;;;;;;;5.15;0.40;;;20.50;49.00;;;;;;6170428;28;20064;-74
2021/12/19 08:04:47;;;;;;;1.67;0.50;;;20.60;49.00;;;;;;6154566;28;20066;-74
2021/12/19 08:07:54;;;;;;;1.10;0.50;;;20.50;49.00;;;;;;6161072;28;20026;-74
2021/12/19 08:14:15;;;;;;;0.35;0.35;;;20.60;49.00;;;;;;6162909;28;20027;-74
2021/12/19 08:17:17;;;;;;;0.52;0.20;;;20.50;49.00;;;;;;6165140;28;20114;-74
2021/12/19 08:20:18;;;;;;;0.70;0.30;;;20.60;49.70;;;;;;6165497;28;20031;-74
2021/12/19 08:23:18;;;;;;;0.60;0.30;;;20.50;49.00;;;;;;6169815;28;20141;-74
2021/12/19 08:26:20;;;;;;;1.23;0.40;;;20.50;49.00;;;;;;6169733;28;20030;-74
2021/12/19 08:29:20;;;;;;;0.40;0.38;;;20.60;49.10;;;;;;6169670;28;20029;-74
2021/12/19 08:32:23;;;;;;;0.65;0.40;;;20.60;49.10;;;;;;6139531;28;20023;-74
2021/12/19 08:35:23;;;;;;;0.68;0.35;;;20.50;49.00;;;;;;6168903;28;20032;-74
2021/12/19 08:38:24;;;;;;;0.38;0.28;;;20.60;49.10;;;;;;6169979;28;20382;-74
2021/12/19 08:41:24;;;;;;;0.95;0.40;;;20.50;49.00;;;;;;6163571;28;20054;-74
2021/12/19 08:44:25;;;;;;;0.85;0.32;;;20.50;49.00;;;;;;6169602;28;20267;-74
2021/12/19 08:47:27;;;;;;;1.13;0.40;;;20.50;49.00;;;;;;6146203;28;20372;-73
2021/12/19 08:50:27;;;;;;;1.23;0.40;;;20.50;49.00;;;;;;6167044;28;20026;-74
2021/12/19 08:53:28;;;;;;;0.30;0.30;;;20.50;49.00;;;;;;6168665;28;20371;-74
2021/12/19 08:56:29;;;;;;;3.65;0.57;;;20.50;49.00;;;;;;6164929;28;20057;-74
2021/12/19 08:59:30;;;;;;;0.50;0.32;;;20.50;49.00;;;;;;6165256;28;20026;-74
2021/12/19 09:02:31;;;;;;;0.47;0.38;;;20.50;49.00;;;;;;6169330;28;20549;-74
2021/12/19 09:05:31;;;;;;;0.90;0.32;;;20.50;49.10;;;;;;6165263;28;20035;-74
2021/12/19 09:08:32;;;;;;;0.40;0.30;;;20.50;49.00;;;;;;6169345;28;20129;-74
2021/12/19 09:11:33;;;;;;;0.50;0.40;;;20.50;49.00;;;;;;6169452;28;20035;-74
2021/12/19 09:14:34;;;;;;;0.38;0.30;;;20.50;49.00;;;;;;6168781;28;20030;-74
2021/12/19 09:17:35;;;;;;;0.22;0.20;;;20.50;49.00;;;;;;6169412;28;20035;-74
2021/12/19 09:20:36;;;;;;;0.52;0.40;;;20.50;49.00;;;;;;6169163;28;20031;-74
2021/12/19 09:23:36;;;;;;;0.57;0.30;;;20.60;49.10;;;;;;6168668;28;20034;-74
2021/12/19 09:26:37;;;;;;;0.77;0.38;;;20.50;49.00;;;;;;6168944;28;20031;-74
2021/12/19 09:29:37;;;;;;;0.20;0.20;;;20.60;49.10;;;;;;6168097;28;20031;-74
2021/12/19 09:32:38;;;;;;;0.52;0.28;;;20.60;49.10;;;;;;6137787;28;20078;-74
2021/12/19 09:35:39;;;;;;;0.80;0.30;;;20.60;49.10;;;;;;6169319;28;20029;-74
2021/12/19 09:38:41;;;;;;;0.55;0.20;;;20.60;49.20;;;;;;6169854;28;20110;-75
2021/12/19 09:41:43;;;;;;;0.25;0.20;;;20.60;49.10;;;;;;6149491;28;20479;-74
2021/12/19 09:44:44;;;;;;;0.30;0.30;;;20.60;49.10;;;;;;6161113;28;20497;-74
2021/12/19 09:47:45;;;;;;;0.20;0.20;;;20.60;49.10;;;;;;6161483;28;20031;-74
2021/12/19 09:50:47;;;;;;;0.20;0.20;;;20.60;49.70;;;;;;6168330;28;20038;-74
2021/12/19 09:53:48;;;;;;;0.20;0.20;;;20.60;49.00;;;;;;6166611;28;20031;-74
2021/12/19 09:56:49;;;;;;;0.38;0.30;;;20.60;49.00;;;;;;6156285;28;20083;-74
2021/12/19 09:59:49;;;;;;;0.20;0.20;;;20.60;49.00;;;;;;6167707;28;20030;-74
2021/12/19 10:02:50;;;;;;;0.30;0.30;;;20.60;49.00;;;;;;6166179;28;20121;-74
2021/12/19 10:06:17;;;;;;;0.35;0.20;;;20.60;49.00;;;;;;6143338;28;20035;-74
2021/12/19 10:09:19;;;;;;;0.20;0.20;;;20.60;49.00;;;;;;6166176;28;20030;-75
2021/12/19 10:12:35;;;;;;;0.30;0.30;;;20.60;49.00;;;;;;6167818;28;20121;-75
2021/12/19 10:15:38;;;;;;;0.10;0.10;;;20.60;49.00;;;;;;6170134;28;20033;-73
2021/12/19 10:18:53;;;;;;;0.50;0.20;;;20.60;49.00;;;;;;6163828;28;20034;-74
2021/12/19 10:21:54;;;;;;;0.20;0.20;;;20.60;49.00;;;;;;6167488;28;20069;-74
2021/12/19 10:24:57;;;;;;;0.20;0.20;;;20.60;49.00;;;;;;6167358;28;20034;-74
2021/12/19 10:28:02;;;;;;;0.30;0.28;;;20.60;49.00;;;;;;6167291;28;20477;-74
2021/12/19 10:31:03;;;;;;;0.35;0.20;;;20.60;49.00;;;;;;6158077;28;20395;-74
2021/12/19 10:34:21;;;;;;;0.40;0.30;;;20.60;49.00;;;;;;6153165;28;20023;-74
2021/12/19 10:37:34;;;;;;;0.32;0.25;;;20.60;49.00;;;;;;6167274;28;20036;-73
2021/12/19 10:40:34;;;;;;;0.20;0.20;;;20.60;49.00;;;;;;6156994;28;20277;-74
2021/12/19 10:43:44;;;;;;;0.75;0.30;;;20.60;49.00;;;;;;6148962;28;20133;-74
2021/12/19 10:46:45;;;;;;;0.20;0.20;;;20.60;49.00;;;;;;6132103;28;20035;-74
2021/12/19 10:49:46;;;;;;;0.47;0.30;;;20.60;49.00;;;;;;6147955;28;20027;-74
2021/12/19 10:52:47;;;;;;;0.50;0.40;;;20.60;49.00;;;;;;6150277;28;20035;-74
2021/12/19 10:55:49;;;;;;;1.65;0.35;;;20.60;49.10;;;;;;6162071;28;20073;-74
2021/12/19 10:58:59;;;;;;;0.70;0.28;;;20.60;49.10;;;;;;6150470;28;20085;-74
2021/12/19 11:01:59;;;;;;;0.30;0.20;;;20.60;49.10;;;;;;6162211;28;20035;-74
2021/12/19 11:05:00;;;;;;;1.20;0.50;;;20.60;49.10;;;;;;6149592;28;20031;-74
2021/12/19 11:08:03;;;;;;;1.02;0.28;;;20.60;49.10;;;;;;6151053;28;20054;-74
2021/12/19 11:11:03;;;;;;;0.43;0.15;;;20.60;49.10;;;;;;6165454;28;20034;-74
2021/12/19 11:14:04;;;;;;;0.40;0.20;;;20.60;49.20;;;;;;6136930;28;20620;-73
2021/12/19 11:17:10;;;;;;;0.20;0.20;;;20.60;49.20;;;;;;6164881;28;20039;-74
2021/12/19 11:20:11;;;;;;;2.38;0.40;;;20.60;49.20;;;;;;6164472;28;20394;-74
2021/12/19 11:23:11;;;;;;;0.32;0.28;;;20.60;49.20;;;;;;6149774;28;20039;-74
2021/12/19 11:26:12;;;;;;;0.65;0.35;;;20.60;49.20;;;;;;6161547;28;20023;-74
2021/12/19 11:29:13;;;;;;;0.30;0.30;;;20.60;49.20;;;;;;6150613;28;20026;-73
2021/12/19 11:32:19;;;;;;;0.20;0.20;;;20.60;49.30;;;;;;6141165;28;20319;-74
2021/12/19 11:35:23;;;;;;;0.28;0.20;;;20.60;49.30;;;;;;6157128;28;20161;-74
2021/12/19 11:38:25;;;;;;;0.67;0.37;;;20.60;49.30;;;;;;6150435;28;20495;-74
2021/12/19 11:41:27;;;;;;;0.65;0.30;;;20.60;49.30;;;;;;6144802;28;20402;-75
2021/12/19 11:44:40;;;;;;;0.50;0.30;;;20.60;49.30;;;;;;6148101;28;20098;-74
2021/12/19 11:47:54;;;;;;;0.30;0.17;;;20.60;49.30;;;;;;6165338;28;20050;-74
2021/12/19 11:51:22;;;;;;;0.60;0.38;;;20.60;49.30;;;;;;6158433;28;20414;-74
2021/12/19 11:54:23;;;;;;;0.15;0.15;;;20.60;49.30;;;;;;6163772;28;20030;-74
2021/12/19 11:57:24;;;;;;;0.32;0.20;;;20.70;49.40;;;;;;6163315;28;20475;-74
2021/12/19 12:00:28;;;;;;;0.40;0.40;;;20.60;49.30;;;;;;6154661;28;20031;-74
2021/12/19 12:03:43;;;;;;;1.50;0.20;;;20.60;49.30;;;;;;6134614;28;20109;-75
2021/12/19 12:06:56;;;;;;;0.40;0.20;;;20.70;49.40;;;;;;6149769;28;20045;-74
2021/12/19 12:09:57;;;;;;;0.40;0.20;;;20.60;49.40;;;;;;6151570;28;20089;-74
2021/12/19 12:12:57;;;;;;;0.50;0.30;;;20.60;49.30;;;;;;6155417;28;20109;-74
2021/12/19 12:16:21;;;;;;;1.95;0.40;;;20.60;49.40;;;;;;6161794;28;20038;-73
2021/12/19 12:19:38;;;;;;;1.23;0.32;;;20.60;49.40;;;;;;6161077;28;20483;-74
2021/12/19 12:22:47;;;;;;;0.30;0.22;;;20.60;49.40;;;;;;6158153;28;20042;-74
2021/12/19 12:25:48;;;;;;;0.20;0.20;;;20.60;49.40;;;;;;6161682;28;20097;-74
2021/12/19 12:28:49;;;;;;;1.55;0.30;;;20.60;49.40;;;;;;6162917;28;20034;-74
2021/12/19 12:31:52;;;;;;;6.97;0.45;;;20.70;49.50;;;;;;6153344;28;20034;-75
2021/12/19 12:34:53;;;;;;;3.67;0.20;;;20.70;49.50;;;;;;6166073;28;20029;-74
2021/12/19 12:37:55;;;;;;;0.47;0.20;;;20.70;49.50;;;;;;6155069;28;20069;-74
2021/12/19 12:41:05;;;;;;;2.05;0.35;;;20.70;49.50;;;;;;6164623;28;20015;-74
2021/12/19 12:44:11;;;;;;;3.50;0.50;;;20.70;49.60;;;;;;6162283;28;20035;-74
2021/12/19 12:47:15;;;;;;;1.42;0.40;;;20.70;49.60;;;;;;6157113;28;20027;-74
2021/12/19 12:50:16;;;;;;;9.63;0.43;;;20.70;49.60;;;;;;6143859;28;20102;-75
2021/12/19 12:53:37;;;;;;;2.10;0.40;;;20.70;49.60;;;;;;6158489;28;20425;-74
2021/12/19 12:56:45;;;;;;;3.40;0.20;;;20.70;49.60;;;;;;6157595;28;20054;-74
2021/12/19 12:59:46;;;;;;;2.35;0.40;;;20.70;49.60;;;;;;6157251;28;20039;-74
2021/12/19 13:02:55;;;;;;;8.70;0.47;;;20.70;49.70;;;;;;6160856;28;20572;-74
2021/12/19 13:05:55;;;;;;;1.48;0.47;;;20.70;49.70;;;;;;6154825;28;20514;-74
2021/12/19 13:09:24;;;;;;;3.70;0.50;;;20.70;49.70;;;;;;6167656;28;20058;-74
2021/12/19 13:12:28;;;;;;;2.10;0.40;;;20.70;49.80;;;;;;6160522;28;20454;-75
2021/12/19 13:15:28;;;;;;;2.95;0.38;;;20.70;49.80;;;;;;6161188;28;20023;-74
2021/12/19 13:18:29;;;;;;;0.82;0.30;;;20.70;49.80;;;;;;6166986;28;20248;-74
2021/12/19 13:21:29;;;;;;;260.80;7.10;;;20.70;49.80;;;;;;6167563;28;20252;-74
2021/12/19 13:24:32;;;;;;;226.38;7.82;;;20.70;49.80;;;;;;6165739;28;20031;-74
2021/12/19 13:27:35;;;;;;;208.75;6.30;;;20.70;49.90;;;;;;6151275;28;20519;-75
2021/12/19 13:30:40;;;;;;;158.25;5.55;;;20.70;49.90;;;;;;6161175;28;20382;-74
2021/12/19 13:33:40;;;;;;;108.25;4.85;;;20.70;49.80;;;;;;6157080;28;20437;-74
2021/12/19 13:36:41;;;;;;;86.22;5.90;;;20.70;49.90;;;;;;6153233;28;20027;-75
2021/12/19 13:39:43;;;;;;;70.75;4.53;;;20.70;49.90;;;;;;6161141;28;20433;-74
2021/12/19 13:42:56;;;;;;;57.22;3.83;;;20.70;49.90;;;;;;6145972;28;20047;-74
2021/12/19 13:46:07;;;;;;;42.13;3.35;;;20.70;49.90;;;;;;6161126;28;20502;-74
2021/12/19 13:49:09;;;;;;;44.10;3.38;;;20.70;49.90;;;;;;6165396;28;20026;-75
2021/12/19 13:52:09;;;;;;;35.40;2.97;;;20.70;49.90;;;;;;6166823;28;20109;-74
2021/12/19 13:55:12;;;;;;;28.25;2.28;;;20.70;49.90;;;;;;6155899;28;20187;-75
2021/12/19 13:58:13;;;;;;;16.02;1.50;;;20.70;50.00;;;;;;6158961;28;20046;-75
2021/12/19 14:01:30;;;;;;;16.00;2.00;;;20.70;50.00;;;;;;6159848;28;20052;-75
2021/12/19 14:04:33;;;;;;;9.70;1.50;;;20.70;50.00;;;;;;6149584;28;20039;-74
2021/12/19 14:07:33;;;;;;;11.80;1.30;;;20.70;50.00;;;;;;6159117;28;20479;-74
2021/12/19 14:10:34;;;;;;;13.10;1.23;;;20.70;50.00;;;;;;6160539;28;20052;-74
2021/12/19 14:13:37;;;;;;;9.40;1.42;;;20.70;50.00;;;;;;6160110;28;20109;-74
2021/12/19 14:16:46;;;;;;;10.68;1.30;;;20.70;50.00;;;;;;6151649;28;20064;-74
2021/12/19 14:19:51;;;;;;;12.57;1.23;;;20.70;50.00;;;;;;6137647;28;20410;-74
2021/12/19 14:22:52;;;;;;;14.93;1.10;;;20.70;49.90;;;;;;6150937;28;20030;-74
2021/12/19 14:25:53;;;;;;;5.70;1.23;;;20.70;50.00;;;;;;6158541;28;20070;-74
2021/12/19 14:28:53;;;;;;;9.27;0.80;;;20.70;50.00;;;;;;6159214;28;20034;-74
2021/12/19 14:32:00;;;;;;;6.82;0.77;;;20.70;50.00;;;;;;6161707;28;20573;-74
2021/12/19 14:35:04;;;;;;;14.57;1.75;;;20.60;50.10;;;;;;6166213;28;20065;-75
2021/12/19 14:38:06;;;;;;;32.90;3.80;;;20.60;49.50;;;;;;6164859;28;20022;-75
2021/12/19 14:41:09;;;;;;;67.18;8.35;;;20.60;49.00;;;;;;6152612;28;20034;-75
2021/12/19 14:44:21;;;;;;;57.20;6.00;;;20.60;48.80;;;;;;6157419;28;20456;-75
2021/12/19 14:47:46;;;;;;;47.42;6.05;;;20.60;49.00;;;;;;6166400;28;20035;-75
2021/12/19 14:50:46;;;;;;;27.85;4.25;;;20.60;49.20;;;;;;6162472;28;20090;-75
2021/12/19 14:53:47;;;;;;;19.70;4.55;;;20.60;49.30;;;;;;6164851;28;20115;-75
2021/12/19 14:56:48;;;;;;;23.33;3.53;;;20.60;49.40;;;;;;6140685;28;20554;-75
2021/12/19 14:59:48;;;;;;;22.42;4.47;;;20.60;49.40;;;;;;6153240;28;20070;-75
2021/12/19 15:02:49;;;;;;;15.90;3.97;;;20.60;49.40;;;;;;6151918;28;20070;-75
2021/12/19 15:05:50;;;;;;;19.40;4.03;;;20.60;49.50;;;;;;6149533;28;20028;-75
2021/12/19 15:08:54;;;;;;;27.45;3.63;;;20.70;49.50;;;;;;6165946;28;20041;-75
2021/12/19 15:11:55;;;;;;;17.73;3.95;;;20.70;49.60;;;;;;6144755;28;20583;-75
2021/12/19 15:14:55;;;;;;;15.68;3.45;;;20.70;49.70;;;;;;6158521;28;20052;-75
2021/12/19 15:17:55;;;;;;;19.13;2.78;;;20.70;49.60;;;;;;6149986;28;20075;-75
2021/12/19 15:20:56;;;;;;;14.38;3.42;;;20.70;49.70;;;;;;6151714;28;20027;-75
2021/12/19 15:23:57;;;;;;;13.63;2.53;;;20.70;49.70;;;;;;6163655;28;20550;-75
2021/12/19 15:26:58;;;;;;;12.35;3.35;;;20.70;49.70;;;;;;6150762;28;20240;-75
2021/12/19 15:29:58;;;;;;;19.08;3.90;;;20.70;49.70;;;;;;6161293;28;20031;-74
2021/12/19 15:32:59;;;;;;;18.00;2.55;;;20.70;49.70;;;;;;6148786;28;20057;-75
2021/12/19 15:35:59;;;;;;;13.13;2.80;;;20.70;49.70;;;;;;6162771;28;20050;-75
2021/12/19 15:39:01;;;;;;;10.25;2.35;;;20.70;49.80;;;;;;6164544;28;20038;-74
2021/12/19 15:42:02;;;;;;;8.43;1.85;;;20.70;49.70;;;;;;6163233;28;20038;-75
2021/12/19 15:45:04;;;;;;;10.40;2.65;;;20.70;49.70;;;;;;6150943;28;20039;-74
2021/12/19 15:48:05;;;;;;;9.73;3.03;;;20.70;49.70;;;;;;6155529;28;20139;-75
2021/12/19 15:51:06;;;;;;;13.10;1.98;;;20.70;49.70;;;;;;6168851;28;20650;-76
2021/12/19 15:54:07;;;;;;;7.82;1.80;;;20.70;49.70;;;;;;6168111;28;20022;-75
2021/12/19 15:57:08;;;;;;;8.70;2.22;;;20.70;49.80;;;;;;6155852;28;20073;-75
2021/12/19 16:00:13;;;;;;;12.07;2.58;;;20.70;49.80;;;;;;6157290;28;20269;-75
2021/12/19 16:03:14;;;;;;;7.45;2.13;;;20.70;49.80;;;;;;6149319;28;20064;-75
2021/12/19 16:06:14;;;;;;;8.00;1.70;;;20.70;49.80;;;;;;6154987;28;20037;-75
2021/12/19 16:09:15;;;;;;;5.78;1.75;;;20.70;49.80;;;;;;6167401;28;20039;-75
2021/12/19 16:12:16;;;;;;;7.20;2.00;;;20.70;49.80;;;;;;6151974;28;20066;-77
2021/12/19 16:15:19;;;;;;;11.35;2.15;;;20.70;49.80;;;;;;6166461;28;20023;-75
2021/12/19 16:18:19;;;;;;;4.85;1.80;;;20.70;49.80;;;;;;6167692;28;20037;-75
2021/12/19 16:21:20;;;;;;;9.43;1.70;;;20.70;49.80;;;;;;6161646;28;20221;-75
2021/12/19 16:24:23;;;;;;;7.82;2.13;;;20.70;49.90;;;;;;6163959;28;20121;-74
2021/12/19 16:27:23;;;;;;;5.53;1.67;;;20.70;49.90;;;;;;6168832;28;20023;-75
2021/12/19 16:30:24;;;;;;;7.38;1.75;;;20.70;50.00;;;;;;6164197;28;20039;-75
2021/12/19 16:33:25;;;;;;;7.95;1.40;;;20.70;50.00;;;;;;6155922;28;20325;-75
2021/12/19 16:36:26;;;;;;;5.80;1.33;;;20.70;50.10;;;;;;6160122;28;20023;-75
2021/12/19 16:39:27;;;;;;;8.35;1.40;;;20.70;50.20;;;;;;6162385;28;20034;-75
2021/12/19 16:45:28;;;;;;;5.60;1.10;;;20.70;50.20;;;;;;6164961;28;20036;-75